Terminal Aerodrome Forecast
Issued by NWS

Current Version | Previous Version | Graphics & Text | Print | Product List | Glossary On
Versions: 1 2 3 4 5 6 7 8 9 10 11 12 13 14 15 16 17 18 19 20 21 22 23 24 25 26 27
000
FTUS41 KRLX 270500 RRA
TAFCKB
TAF
KCKB 270543Z 2706/2806 18003KT P6SM VCTS SCT040CB BKN060
      TEMPO 2706/2710 2SM TSRA BR BKN025CB
     FM271200 20004KT P6SM SCT040 BKN100
     FM271500 22008KT P6SM VCTS BKN050CB
     FM271900 24010G20KT 5SM TSRA BKN040CB
     FM272300 25010G20KT P6SM BKN050
     FM280300 28008KT P6SM BKN035=

USA.gov is the U.S. government's official web portal to all federal, state and local government web resources and services.